createdAt,value
2023-01-29T00:04:32.654Z,5.50
2023-01-29T00:09:36.270Z,3.21
2023-01-29T00:14:41.812Z,1.83
2023-01-29T00:19:45.013Z,0.97
2023-01-29T00:24:48.122Z,0.48
2023-01-29T00:30:09.451Z,2.61
2023-01-29T00:35:12.680Z,5.84
2023-01-29T00:40:16.793Z,5.58
2023-01-29T00:45:20.233Z,3.31
2023-01-29T00:50:23.416Z,1.83
2023-01-29T00:55:26.725Z,2.12
2023-01-29T01:00:29.879Z,4.06
2023-01-29T01:05:33.249Z,3.00
2023-01-29T01:10:36.352Z,1.70
2023-01-29T01:15:41.012Z,3.47
2023-01-29T01:20:44.124Z,4.73
2023-01-29T01:25:47.312Z,3.00
2023-01-29T01:30:50.499Z,1.54
2023-01-29T01:35:53.734Z,1.05
2023-01-29T01:40:56.837Z,2.82
2023-01-29T01:46:00.153Z,4.13
2023-01-29T01:51:06.734Z,3.28
2023-01-29T01:56:15.876Z,1.74
2023-01-29T02:01:27.109Z,2.15
2023-01-29T02:06:51.275Z,4.30
2023-01-29T02:11:54.380Z,5.41
2023-01-29T02:17:00.329Z,5.03
2023-01-29T02:22:38.711Z,2.78
2023-01-29T02:28:25.210Z,3.85
2023-01-29T02:33:41.331Z,5.28
2023-01-29T02:39:15.357Z,4.05
2023-01-29T02:45:16.525Z,3.29
2023-01-29T02:50:42.767Z,5.05
2023-01-29T02:56:15.780Z,3.39
2023-01-29T03:01:38.336Z,5.84
2023-01-29T03:06:51.392Z,6.29
2023-01-29T03:12:19.991Z,3.64
2023-01-29T03:17:33.536Z,3.25
2023-01-29T03:22:39.932Z,5.63
2023-01-29T03:28:23.580Z,4.43
2023-01-29T03:33:32.843Z,2.51
2023-01-29T03:38:36.457Z,4.83
2023-01-29T03:43:55.423Z,6.13
2023-01-29T03:49:01.609Z,3.96
2023-01-29T03:54:29.490Z,2.40
2023-01-29T04:00:26.657Z,4.74
2023-01-29T04:05:44.112Z,6.44
2023-01-29T04:10:52.236Z,4.18
2023-01-29T04:16:02.074Z,2.36
2023-01-29T04:21:07.507Z,3.50
2023-01-29T04:26:28.594Z,5.99
2023-01-29T04:31:45.322Z,4.50
2023-01-29T04:37:16.984Z,2.51
2023-01-29T04:42:31.373Z,4.65
2023-01-29T04:48:17.567Z,6.60
2023-01-29T04:53:59.400Z,5.60
2023-01-29T04:59:09.516Z,3.21
2023-01-29T05:04:18.561Z,5.21
2023-01-29T05:09:22.935Z,6.14
2023-01-29T05:14:30.624Z,3.97
2023-01-29T05:19:33.883Z,5.41
2023-01-29T05:24:37.893Z,7.35
2023-01-29T05:29:46.962Z,4.97
2023-01-29T05:34:50.054Z,2.83
2023-01-29T05:39:53.146Z,4.12
2023-01-29T05:44:56.283Z,6.01
2023-01-29T05:49:59.561Z,7.29
2023-01-29T05:55:02.701Z,6.22
2023-01-29T06:00:07.601Z,3.61
2023-01-29T06:05:10.924Z,3.20
2023-01-29T06:10:18.060Z,5.67
2023-01-29T06:15:21.646Z,7.02
2023-01-29T06:20:25.670Z,6.48
2023-01-29T06:25:28.883Z,3.94
2023-01-29T06:30:32.057Z,2.44
2023-01-29T06:35:35.297Z,4.42
2023-01-29T06:40:39.433Z,6.38
2023-01-29T06:45:52.150Z,4.53
2023-01-29T06:50:55.571Z,3.19
2023-01-29T06:55:58.787Z,5.82
2023-01-29T07:01:15.505Z,5.96
2023-01-29T07:06:30.098Z,3.37
2023-01-29T07:11:37.905Z,4.16
2023-01-29T07:16:41.135Z,6.59
2023-01-29T07:21:44.420Z,6.67
2023-01-29T07:26:47.833Z,3.87
2023-01-29T07:31:51.043Z,2.41
2023-01-29T07:36:54.766Z,4.51
2023-01-29T07:41:58.585Z,6.53
2023-01-29T07:47:01.698Z,4.92
2023-01-29T07:52:05.205Z,3.50
2023-01-29T07:57:08.517Z,5.74
2023-01-29T08:02:12.782Z,6.44
2023-01-29T08:07:16.011Z,4.20
2023-01-29T08:12:19.166Z,4.45
2023-01-29T08:17:22.598Z,6.27
2023-01-29T08:22:25.797Z,4.91
2023-01-29T08:27:29.025Z,4.16
2023-01-29T08:32:32.531Z,6.76
2023-01-29T08:37:35.835Z,7.00
2023-01-29T08:42:39.136Z,4.55
2023-01-29T08:47:47.734Z,3.13
2023-01-29T08:52:50.801Z,4.93
2023-01-29T08:57:54.813Z,7.41
2023-01-29T09:02:59.871Z,6.29
2023-01-29T09:08:03.691Z,4.07
2023-01-29T09:13:06.903Z,4.90
2023-01-29T09:18:10.043Z,6.61
2023-01-29T09:23:13.416Z,5.06
2023-01-29T09:28:18.017Z,5.40
2023-01-29T09:33:21.888Z,6.40
2023-01-29T09:38:24.987Z,4.49
2023-01-29T09:44:01.687Z,4.59
2023-01-29T09:49:27.182Z,6.55
2023-01-29T09:54:43.007Z,6.41
2023-01-29T09:59:46.127Z,4.33
2023-01-29T10:04:58.333Z,6.08
2023-01-29T10:10:45.290Z,7.06
2023-01-29T10:16:23.507Z,5.01
2023-01-29T10:21:38.910Z,7.02
2023-01-29T10:26:42.175Z,6.63
2023-01-29T10:31:52.402Z,4.55
2023-01-29T10:36:57.367Z,5.71
2023-01-29T10:42:49.272Z,7.10
2023-01-29T10:48:23.824Z,5.13
2023-01-29T10:54:44.341Z,3.69
2023-01-29T11:00:07.623Z,5.93
2023-01-29T11:05:36.633Z,6.90
2023-01-29T11:10:49.576Z,5.47
2023-01-29T11:15:54.035Z,5.56
2023-01-29T11:21:04.782Z,6.90
2023-01-29T11:26:14.308Z,6.49
2023-01-29T11:31:29.223Z,4.95
2023-01-29T11:36:35.334Z,6.44
2023-01-29T11:42:04.211Z,7.01
2023-01-29T11:47:16.254Z,5.10
2023-01-29T11:52:25.149Z,4.69
2023-01-29T11:57:39.169Z,6.20
2023-01-29T12:03:06.820Z,6.95
2023-01-29T12:08:19.155Z,5.65
2023-01-29T12:13:28.688Z,4.67
2023-01-29T12:18:59.359Z,6.27
2023-01-29T12:24:27.960Z,7.05
2023-01-29T12:30:19.951Z,5.94
2023-01-29T12:35:32.231Z,5.24
2023-01-29T12:40:47.259Z,6.44
2023-01-29T12:45:55.656Z,7.26
2023-01-29T12:51:09.818Z,6.18
2023-01-29T12:56:27.060Z,4.24
2023-01-29T13:01:39.475Z,4.72
2023-01-29T13:06:51.598Z,6.48
2023-01-29T13:12:04.106Z,7.12
2023-01-29T13:17:24.333Z,6.83
2023-01-29T13:22:35.354Z,5.22
2023-01-29T13:27:39.704Z,6.64
2023-01-29T13:32:50.750Z,7.44
2023-01-29T13:37:55.703Z,6.65
2023-01-29T13:43:00.427Z,5.49
2023-01-29T13:48:38.260Z,6.43
2023-01-29T13:53:43.420Z,7.24
2023-01-29T13:58:46.429Z,5.77
2023-01-29T14:04:08.098Z,5.24
2023-01-29T14:09:53.885Z,6.27
2023-01-29T14:14:57.021Z,7.21
2023-01-29T14:20:20.028Z,6.61
2023-01-29T14:25:32.104Z,5.62
2023-01-29T14:30:36.621Z,6.21
2023-01-29T14:35:50.574Z,6.53
2023-01-29T14:41:25.411Z,6.63
2023-01-29T14:46:34.466Z,6.92
2023-01-29T14:51:44.187Z,7.15
2023-01-29T14:57:00.148Z,7.08
2023-01-29T15:02:40.247Z,5.16
2023-01-29T15:07:55.293Z,6.05
2023-01-29T15:13:36.117Z,6.67
2023-01-29T15:18:44.195Z,7.30
2023-01-29T15:23:49.372Z,6.42
2023-01-29T15:29:04.152Z,5.12
2023-01-29T15:34:08.285Z,6.32
2023-01-29T15:39:25.059Z,6.98
2023-01-29T15:44:28.306Z,7.47
2023-01-29T15:49:36.497Z,7.41
2023-01-29T15:54:39.947Z,5.49
2023-01-29T15:59:45.927Z,5.65
2023-01-29T16:04:49.259Z,6.57
2023-01-29T16:09:54.113Z,6.88
2023-01-29T16:14:58.007Z,6.92
2023-01-29T16:20:08.387Z,7.17
2023-01-29T16:25:16.104Z,7.11
2023-01-29T16:30:20.218Z,7.36
2023-01-29T16:35:23.361Z,6.90
2023-01-29T16:40:33.394Z,4.78
2023-01-29T16:45:36.622Z,5.05
2023-01-29T16:50:53.985Z,6.11
2023-01-29T16:56:05.956Z,6.90
2023-01-29T17:01:11.660Z,7.17
2023-01-29T17:06:26.343Z,7.40
2023-01-29T17:11:41.815Z,7.51
2023-01-29T17:17:34.574Z,5.55
2023-01-29T17:22:37.785Z,5.53
2023-01-29T17:27:44.081Z,6.43
2023-01-29T17:32:47.667Z,6.68
2023-01-29T17:37:51.099Z,6.88
2023-01-29T17:42:54.099Z,6.67
2023-01-29T17:47:57.312Z,6.72
2023-01-29T17:53:00.407Z,6.74
2023-01-29T17:58:03.729Z,7.00
2023-01-29T18:03:06.935Z,7.31
2023-01-29T18:08:19.288Z,7.29
2023-01-29T18:13:22.572Z,7.42
2023-01-29T18:18:25.708Z,5.63
2023-01-29T18:23:31.746Z,4.34
2023-01-29T18:28:35.154Z,5.63
2023-01-29T18:33:38.268Z,6.70
2023-01-29T18:38:41.504Z,7.31
2023-01-29T18:43:44.790Z,7.56
2023-01-29T18:48:48.117Z,7.59
2023-01-29T18:53:53.259Z,7.61
2023-01-29T18:58:56.690Z,6.12
2023-01-29T19:04:00.609Z,4.99
2023-01-29T19:09:04.622Z,6.38
2023-01-29T19:14:07.720Z,6.92
2023-01-29T19:19:11.548Z,7.16
2023-01-29T19:24:15.589Z,7.18
2023-01-29T19:29:20.347Z,6.97
2023-01-29T19:34:24.154Z,7.03
2023-01-29T19:39:32.678Z,7.24
2023-01-29T19:44:35.889Z,7.25
2023-01-29T19:49:40.866Z,7.26
2023-01-29T19:54:46.573Z,7.32
2023-01-29T19:59:49.812Z,7.17
2023-01-29T20:04:53.222Z,7.27
2023-01-29T20:09:56.533Z,7.59
2023-01-29T20:14:59.740Z,7.48
2023-01-29T20:20:05.917Z,7.28
2023-01-29T20:25:09.966Z,5.35
2023-01-29T20:30:14.043Z,6.21
2023-01-29T20:35:17.418Z,7.48
2023-01-29T20:40:20.605Z,8.24
2023-01-29T20:45:23.909Z,6.67
2023-01-29T20:50:27.428Z,5.66
2023-01-29T20:55:31.976Z,7.24
2023-01-29T21:00:35.645Z,8.26
2023-01-29T21:05:39.011Z,6.55
2023-01-29T21:10:43.354Z,5.37
2023-01-29T21:15:47.157Z,6.42
2023-01-29T21:20:50.880Z,6.80
2023-01-29T21:25:54.129Z,7.12
2023-01-29T21:31:10.289Z,7.27
2023-01-29T21:36:13.522Z,7.26
2023-01-29T21:41:16.795Z,7.14
2023-01-29T21:46:20.053Z,7.22
2023-01-29T21:51:24.055Z,7.30
2023-01-29T21:56:27.284Z,7.39
2023-01-29T22:01:37.996Z,7.54
2023-01-29T22:06:42.790Z,7.44
2023-01-29T22:11:45.798Z,7.35
2023-01-29T22:16:49.056Z,7.12
2023-01-29T22:21:55.922Z,6.83
2023-01-29T22:26:59.002Z,7.18
2023-01-29T22:32:02.177Z,6.94
2023-01-29T22:37:05.625Z,7.19
2023-01-29T22:42:08.756Z,7.10
2023-01-29T22:47:12.560Z,7.24
2023-01-29T22:52:16.072Z,7.41
2023-01-29T22:57:20.105Z,7.44
2023-01-29T23:02:23.134Z,7.37
2023-01-29T23:07:26.722Z,5.28
2023-01-29T23:12:29.861Z,5.69
2023-01-29T23:17:33.750Z,7.38
2023-01-29T23:22:36.856Z,7.67
2023-01-29T23:27:40.275Z,5.74
2023-01-29T23:32:43.320Z,6.53
2023-01-29T23:37:46.490Z,7.21
2023-01-29T23:42:49.698Z,7.30
2023-01-29T23:47:52.717Z,7.28
2023-01-29T23:52:55.804Z,7.36
2023-01-29T23:57:59.011Z,7.29
